Time;durP1;ratioP1;P1;durP2;ratioP2;P2;SDS_P1;SDS_P2;PMS_P1;PMS_P2;Temp;Humidity;BMP_temperature;BMP_pressure;BME280_temperature;BME280_humidity;BME280_pressure;Samples;Min_cycle;Max_cycle;Signal;HPM_P1;HPM_P2
2024/01/31 04:01:14;;;;;;;6.43;4.93;;;21.40;28.90;;;;;;5665501;23;45152;-86
2024/01/31 04:03:42;;;;;;;6.35;5.30;;;21.40;28.90;;;;;;4952248;28;45356;-85
2024/01/31 04:06:08;;;;;;;6.80;5.70;;;21.40;28.90;;;;;;4958577;28;45157;-87
2024/01/31 04:08:34;;;;;;;6.70;5.40;;;21.40;28.90;;;;;;4965548;28;46637;-85
2024/01/31 04:11:00;;;;;;;8.50;5.43;;;21.40;28.90;;;;;;4940048;28;44893;-83
2024/01/31 04:13:26;;;;;;;7.15;5.18;;;21.40;28.90;;;;;;4927149;28;45301;-87
2024/01/31 04:15:52;;;;;;;7.35;5.68;;;21.40;28.90;;;;;;4923952;28;45225;-85
2024/01/31 04:18:20;;;;;;;6.55;5.15;;;21.40;28.90;;;;;;4924404;28;47142;-88
2024/01/31 04:20:46;;;;;;;6.40;5.03;;;21.40;29.00;;;;;;4950185;28;45183;-87
2024/01/31 04:23:15;;;;;;;6.20;5.22;;;21.40;29.00;;;;;;4941352;28;45513;-87
2024/01/31 04:25:41;;;;;;;6.40;4.97;;;21.40;29.00;;;;;;4952059;28;45159;-86
2024/01/31 04:28:06;;;;;;;5.15;4.65;;;21.40;29.00;;;;;;4943052;28;47131;-87
2024/01/31 04:30:32;;;;;;;6.22;4.88;;;21.40;29.00;;;;;;4952200;28;45026;-84
2024/01/31 04:33:01;;;;;;;5.30;4.43;;;21.40;29.00;;;;;;4938214;28;45049;-86
2024/01/31 04:35:27;;;;;;;7.15;5.78;;;21.40;29.00;;;;;;4935407;28;45584;-85
2024/01/31 04:37:53;;;;;;;6.53;5.07;;;21.40;29.00;;;;;;4924673;28;46456;-86
2024/01/31 04:40:19;;;;;;;6.55;5.15;;;21.40;29.00;;;;;;4943885;28;44712;-88
2024/01/31 04:42:47;;;;;;;6.68;5.00;;;21.30;29.10;;;;;;4944301;28;44682;-89
2024/01/31 04:45:16;;;;;;;6.47;5.25;;;21.30;29.00;;;;;;4937123;28;45139;-90
2024/01/31 04:47:42;;;;;;;7.32;5.47;;;21.30;29.10;;;;;;4922870;28;45641;-87
2024/01/31 04:50:09;;;;;;;6.40;5.20;;;21.30;29.00;;;;;;4934960;28;45083;-86
2024/01/31 04:52:35;;;;;;;6.35;4.88;;;21.30;29.10;;;;;;4952350;28;44846;-87
2024/01/31 04:55:01;;;;;;;6.30;4.93;;;21.30;29.10;;;;;;4946363;28;45158;-86
2024/01/31 04:57:27;;;;;;;6.22;5.03;;;21.30;29.10;;;;;;4969724;28;46006;-86
2024/01/31 04:59:53;;;;;;;5.85;5.10;;;21.30;29.10;;;;;;4960654;28;45316;-85
2024/01/31 05:02:18;;;;;;;6.05;4.65;;;21.30;29.10;;;;;;4950522;28;45252;-85
2024/01/31 05:04:44;;;;;;;5.75;4.60;;;21.20;29.10;;;;;;4930361;28;45240;-85
2024/01/31 05:07:10;;;;;;;6.63;4.75;;;21.30;29.10;;;;;;4967899;28;47345;-85
2024/01/31 05:09:37;;;;;;;6.75;5.28;;;21.30;29.20;;;;;;4932057;28;45469;-85
2024/01/31 05:12:03;;;;;;;5.07;4.10;;;21.30;29.20;;;;;;4951813;28;45819;-86
2024/01/31 05:14:29;;;;;;;6.55;4.40;;;21.20;29.10;;;;;;4930363;28;45122;-84
2024/01/31 05:16:55;;;;;;;7.72;4.90;;;21.20;29.20;;;;;;4936931;28;45476;-85
2024/01/31 05:19:21;;;;;;;6.07;4.90;;;21.20;29.10;;;;;;4953312;28;45662;-86
2024/01/31 05:21:52;;;;;;;7.30;4.82;;;21.20;29.20;;;;;;4923052;28;45523;-87
2024/01/31 05:24:18;;;;;;;5.95;4.50;;;21.20;29.20;;;;;;4941008;28;45412;-86
2024/01/31 05:26:44;;;;;;;5.65;4.38;;;21.20;29.20;;;;;;4971895;28;46093;-86
2024/01/31 05:29:10;;;;;;;5.20;4.32;;;21.20;29.20;;;;;;4940790;28;45504;-86
2024/01/31 05:31:36;;;;;;;7.65;4.78;;;21.20;29.30;;;;;;4953870;28;45669;-87
2024/01/31 05:34:01;;;;;;;4.53;3.90;;;21.20;29.30;;;;;;4927379;28;45258;-86
2024/01/31 05:36:27;;;;;;;6.18;4.35;;;21.20;29.30;;;;;;4955586;28;45322;-86
2024/01/31 05:38:54;;;;;;;6.57;4.65;;;21.10;29.30;;;;;;4955492;28;45737;-85
2024/01/31 05:41:21;;;;;;;6.53;4.75;;;21.20;29.30;;;;;;4948586;28;45698;-86
2024/01/31 05:43:46;;;;;;;5.60;4.47;;;21.20;29.30;;;;;;4955407;28;45447;-88
2024/01/31 05:46:15;;;;;;;8.18;4.70;;;21.20;29.30;;;;;;4938129;28;47456;-84
2024/01/31 05:48:42;;;;;;;5.75;4.30;;;21.20;29.30;;;;;;4956523;28;45291;-86
2024/01/31 05:51:08;;;;;;;6.40;4.70;;;21.20;29.30;;;;;;4936685;28;45164;-87
2024/01/31 05:53:34;;;;;;;7.15;4.55;;;21.10;29.40;;;;;;4958733;28;44792;-86
2024/01/31 05:56:00;;;;;;;4.88;4.22;;;21.10;29.80;;;;;;4935089;28;45890;-87
2024/01/31 05:58:26;;;;;;;5.82;4.85;;;21.10;29.40;;;;;;4953585;28;45219;-86
2024/01/31 06:00:52;;;;;;;5.15;4.18;;;21.10;29.40;;;;;;4965168;28;45226;-86
2024/01/31 06:03:17;;;;;;;7.18;4.75;;;21.20;29.50;;;;;;4943614;28;45059;-86
2024/01/31 06:05:43;;;;;;;5.50;4.63;;;21.10;29.40;;;;;;4937851;28;46180;-87
2024/01/31 06:08:09;;;;;;;5.15;4.53;;;21.10;29.50;;;;;;4941060;28;45021;-86
2024/01/31 06:10:34;;;;;;;5.18;4.40;;;21.10;29.50;;;;;;4958819;28;45374;-87
2024/01/31 06:13:00;;;;;;;5.35;4.13;;;21.10;29.50;;;;;;4924871;28;45635;-87
2024/01/31 06:15:26;;;;;;;4.53;3.92;;;21.10;29.50;;;;;;4942252;28;47767;-86
2024/01/31 06:17:52;;;;;;;10.68;3.92;;;21.00;29.50;;;;;;4981334;28;45113;-87
2024/01/31 06:20:40;;;;;;;7.40;4.03;;;21.10;29.50;;;;;;4928182;28;45038;-87
2024/01/31 06:23:09;;;;;;;7.75;4.25;;;21.00;29.60;;;;;;4945386;28;45791;-85
2024/01/31 06:25:35;;;;;;;5.05;3.90;;;21.00;29.50;;;;;;4942626;28;46077;-88
2024/01/31 06:28:02;;;;;;;5.07;3.90;;;21.00;29.60;;;;;;4923329;28;47869;-87
2024/01/31 06:30:40;;;;;;;4.50;3.45;;;21.00;29.60;;;;;;4937999;28;45191;-87
2024/01/31 06:33:07;;;;;;;4.25;3.53;;;21.00;29.60;;;;;;4926744;28;45141;-88
2024/01/31 06:35:34;;;;;;;5.03;3.63;;;21.00;29.60;;;;;;4942583;28;47065;-86
2024/01/31 06:37:59;;;;;;;3.90;3.50;;;21.00;29.60;;;;;;4962284;28;45175;-87
2024/01/31 06:40:26;;;;;;;4.55;3.53;;;21.00;29.60;;;;;;4925852;28;44882;-86
2024/01/31 06:42:52;;;;;;;4.35;3.33;;;21.00;29.70;;;;;;4960939;28;45050;-87
2024/01/31 06:45:20;;;;;;;5.45;3.38;;;21.00;29.70;;;;;;4944283;28;46513;-86
2024/01/31 06:47:47;;;;;;;4.18;3.55;;;20.90;29.70;;;;;;4938566;28;45063;-87
2024/01/31 06:50:15;;;;;;;6.13;3.40;;;21.00;29.70;;;;;;4955291;28;45281;-89
2024/01/31 06:52:41;;;;;;;6.18;4.40;;;21.00;29.80;;;;;;4949307;28;45567;-89
2024/01/31 06:55:11;;;;;;;4.50;3.83;;;20.90;29.70;;;;;;4961754;28;47221;-89
2024/01/31 06:57:37;;;;;;;6.65;4.20;;;20.90;29.80;;;;;;4942969;28;45521;-85
2024/01/31 07:00:16;;;;;;;3.85;3.45;;;20.90;29.80;;;;;;4948449;28;44907;-89
2024/01/31 07:02:41;;;;;;;4.97;3.50;;;20.90;30.00;;;;;;4936236;28;44825;-88
2024/01/31 07:05:10;;;;;;;5.20;3.65;;;20.90;29.90;;;;;;4945242;28;45883;-87
2024/01/31 07:07:36;;;;;;;5.20;3.70;;;20.90;29.90;;;;;;4946220;28;45227;-86
2024/01/31 07:10:08;;;;;;;4.32;3.53;;;20.90;30.00;;;;;;4944144;28;45115;-87
2024/01/31 07:12:38;;;;;;;4.40;3.13;;;20.90;30.00;;;;;;4968186;28;44867;-87
2024/01/31 07:15:17;;;;;;;5.13;3.10;;;20.90;30.00;;;;;;4945427;28;47133;-89
2024/01/31 07:17:42;;;;;;;2.97;2.58;;;20.90;30.10;;;;;;4945772;28;44737;-88
2024/01/31 07:20:12;;;;;;;4.38;3.05;;;20.90;30.00;;;;;;4958405;28;45155;-89
2024/01/31 07:22:38;;;;;;;4.28;2.75;;;20.90;30.00;;;;;;4957600;28;45312;-86
2024/01/31 07:25:13;;;;;;;3.50;2.90;;;20.90;30.00;;;;;;4968853;28;45337;-89
2024/01/31 07:27:40;;;;;;;3.33;2.78;;;20.90;30.10;;;;;;4946179;28;45342;-86
2024/01/31 07:30:35;;;;;;;3.88;2.90;;;20.90;30.10;;;;;;4949540;28;44621;-89
2024/01/31 07:33:01;;;;;;;3.65;2.60;;;20.90;31.00;;;;;;4963701;28;45152;-85
2024/01/31 07:35:31;;;;;;;3.55;2.85;;;20.90;30.10;;;;;;4939590;28;46263;-90
2024/01/31 07:37:57;;;;;;;3.28;2.78;;;20.90;30.20;;;;;;4952210;28;44765;-86
2024/01/31 07:40:23;;;;;;;3.50;2.60;;;20.90;30.10;;;;;;4941736;28;44787;-87
2024/01/31 07:42:50;;;;;;;3.53;2.60;;;20.90;30.10;;;;;;4965406;28;44967;-87
2024/01/31 07:45:16;;;;;;;3.28;2.50;;;21.00;30.20;;;;;;4951081;28;46474;-87
2024/01/31 07:47:42;;;;;;;2.45;2.15;;;21.00;30.30;;;;;;4973786;28;45589;-87
2024/01/31 07:50:11;;;;;;;2.75;2.25;;;21.00;30.30;;;;;;4952837;28;45385;-87
2024/01/31 07:52:36;;;;;;;3.05;2.20;;;21.00;30.30;;;;;;4944080;28;46321;-86
2024/01/31 07:55:15;;;;;;;2.78;2.13;;;21.00;30.30;;;;;;4948146;28;47062;-87
2024/01/31 07:57:40;;;;;;;3.15;2.13;;;21.00;30.30;;;;;;4947540;28;45042;-87
2024/01/31 08:00:18;;;;;;;2.92;2.38;;;21.00;30.30;;;;;;4950477;28;45171;-87
2024/01/31 08:02:46;;;;;;;2.30;2.05;;;21.00;30.50;;;;;;4893925;28;45714;-86
2024/01/31 08:05:15;;;;;;;3.20;1.90;;;21.10;30.40;;;;;;4938935;28;46535;-88
2024/01/31 08:07:44;;;;;;;3.25;2.22;;;21.10;30.40;;;;;;4936308;28;44959;-87
2024/01/31 08:10:11;;;;;;;2.08;1.83;;;21.10;30.40;;;;;;4921123;28;45065;-87
2024/01/31 08:12:37;;;;;;;2.83;2.20;;;21.10;30.40;;;;;;4935888;28;45911;-86
2024/01/31 08:15:15;;;;;;;2.45;2.13;;;21.20;30.50;;;;;;4905401;28;46181;-88
2024/01/31 08:17:41;;;;;;;2.63;1.80;;;21.20;30.60;;;;;;4923916;28;45126;-87
2024/01/31 08:20:10;;;;;;;3.13;1.98;;;21.20;30.50;;;;;;4939908;28;45157;-88
2024/01/31 08:22:36;;;;;;;2.65;2.10;;;21.20;30.50;;;;;;4910020;28;44982;-87
2024/01/31 08:25:14;;;;;;;3.30;2.30;;;21.20;30.50;;;;;;4924695;28;46835;-90
2024/01/31 08:27:40;;;;;;;2.33;2.08;;;21.20;30.50;;;;;;4921521;28;44688;-86
2024/01/31 08:30:11;;;;;;;2.97;1.85;;;21.30;30.50;;;;;;4917132;28;45099;-88
2024/01/31 08:32:37;;;;;;;3.08;1.95;;;21.30;30.50;;;;;;4919641;28;45191;-87
2024/01/31 08:35:10;;;;;;;2.45;1.95;;;21.30;30.50;;;;;;4939314;28;45348;-89
2024/01/31 08:37:36;;;;;;;3.33;2.25;;;21.30;30.60;;;;;;4926208;28;45035;-86
2024/01/31 08:40:05;;;;;;;2.80;2.20;;;21.30;30.50;;;;;;4940774;28;44890;-87
2024/01/31 08:42:33;;;;;;;3.45;2.00;;;21.30;30.50;;;;;;4925223;28;44970;-86
2024/01/31 08:44:59;;;;;;;2.72;2.33;;;21.40;30.50;;;;;;4934111;28;45574;-86
2024/01/31 08:47:25;;;;;;;3.78;2.00;;;21.40;30.50;;;;;;4917688;28;45119;-87
2024/01/31 08:49:56;;;;;;;2.83;2.10;;;21.40;30.60;;;;;;4958635;28;44996;-86
2024/01/31 08:52:22;;;;;;;2.10;1.80;;;21.40;30.50;;;;;;4924308;28;44981;-88
2024/01/31 08:54:48;;;;;;;2.42;1.95;;;21.50;30.50;;;;;;4920555;28;46911;-86
2024/01/31 08:57:13;;;;;;;2.80;2.10;;;21.50;30.50;;;;;;4922791;28;45157;-87
2024/01/31 08:59:39;;;;;;;2.53;1.98;;;21.50;30.50;;;;;;4924423;28;45158;-87
2024/01/31 09:02:05;;;;;;;2.72;1.80;;;21.50;30.50;;;;;;4909438;28;45154;-88
2024/01/31 09:04:31;;;;;;;3.58;1.90;;;21.60;30.50;;;;;;4975174;28;46429;-87
2024/01/31 09:06:56;;;;;;;2.83;1.73;;;21.60;30.50;;;;;;4966597;28;45379;-86
2024/01/31 09:09:22;;;;;;;2.67;1.83;;;21.60;30.50;;;;;;4975667;28;44743;-88
2024/01/31 09:11:48;;;;;;;3.42;2.00;;;21.70;30.50;;;;;;4922337;28;45238;-86
2024/01/31 09:14:14;;;;;;;3.28;1.90;;;21.70;30.50;;;;;;4950317;28;46065;-86
2024/01/31 09:16:40;;;;;;;2.33;1.80;;;21.70;30.40;;;;;;4948631;28;45071;-86
2024/01/31 09:19:06;;;;;;;3.30;1.63;;;21.70;30.40;;;;;;4940354;28;44893;-88
2024/01/31 09:21:32;;;;;;;2.45;1.70;;;21.80;30.40;;;;;;4957198;28;44866;-88
2024/01/31 09:23:59;;;;;;;3.15;1.67;;;21.80;30.40;;;;;;4944323;28;46583;-87
2024/01/31 09:26:25;;;;;;;2.20;1.58;;;21.80;30.40;;;;;;4956620;28;45294;-87
2024/01/31 09:28:50;;;;;;;4.00;2.03;;;21.90;30.40;;;;;;4939146;28;44988;-88
2024/01/31 09:31:29;;;;;;;3.13;1.67;;;21.90;30.40;;;;;;4933976;28;45512;-86
2024/01/31 09:33:55;;;;;;;2.22;1.77;;;21.90;30.40;;;;;;4960626;28;47516;-88
2024/01/31 09:36:21;;;;;;;2.92;1.90;;;22.00;30.40;;;;;;4937482;28;45275;-86
2024/01/31 09:38:48;;;;;;;4.28;2.03;;;22.00;30.40;;;;;;4960455;28;44944;-88
2024/01/31 09:41:14;;;;;;;2.22;1.77;;;22.00;30.40;;;;;;4921977;28;44716;-88
2024/01/31 09:43:40;;;;;;;3.13;1.83;;;22.00;30.40;;;;;;4958981;28;46238;-87
2024/01/31 09:46:07;;;;;;;2.67;1.63;;;22.10;30.40;;;;;;4965696;28;46377;-87
2024/01/31 09:48:33;;;;;;;2.45;1.52;;;22.10;30.40;;;;;;4945166;28;45135;-86
2024/01/31 09:51:04;;;;;;;2.55;1.50;;;22.10;30.40;;;;;;4950327;28;45463;-86
2024/01/31 09:53:38;;;;;;;3.17;1.70;;;22.10;30.50;;;;;;4941812;28;46282;-86
2024/01/31 09:56:07;;;;;;;1.75;1.40;;;22.10;30.40;;;;;;4954522;28;44857;-87
2024/01/31 09:58:33;;;;;;;2.60;1.77;;;22.10;30.50;;;;;;4927698;28;44665;-87
2024/01/31 10:01:02;;;;;;;3.75;1.33;;;22.20;30.30;;;;;;4922438;28;45626;-87
2024/01/31 10:03:29;;;;;;;2.63;1.40;;;22.20;30.30;;;;;;4955908;28;45425;-87
2024/01/31 10:05:55;;;;;;;3.33;1.40;;;22.30;30.30;;;;;;4972180;28;45195;-86
2024/01/31 10:08:20;;;;;;;2.38;1.58;;;22.30;30.30;;;;;;4953853;28;45030;-87
2024/01/31 10:10:47;;;;;;;4.10;1.58;;;22.30;30.20;;;;;;4955422;28;45710;-86
2024/01/31 10:13:13;;;;;;;4.90;1.80;;;22.40;30.20;;;;;;4944714;28;46029;-87
2024/01/31 10:15:43;;;;;;;2.22;1.50;;;22.40;30.10;;;;;;4915821;28;44894;-86
2024/01/31 10:18:08;;;;;;;3.03;1.83;;;22.40;30.10;;;;;;4952110;28;45479;-87
2024/01/31 10:20:34;;;;;;;2.33;1.60;;;22.40;30.10;;;;;;4960997;28;45462;-87
2024/01/31 10:23:00;;;;;;;3.78;1.67;;;22.50;30.10;;;;;;4945903;28;46568;-86
2024/01/31 10:25:29;;;;;;;2.20;1.42;;;22.50;30.10;;;;;;4929749;28;45263;-87
2024/01/31 10:27:55;;;;;;;2.03;1.52;;;22.50;30.10;;;;;;4943237;28;45170;-86
2024/01/31 10:30:20;;;;;;;3.92;1.70;;;22.50;30.10;;;;;;4949159;28;45107;-88
2024/01/31 10:32:46;;;;;;;2.63;1.45;;;22.50;30.00;;;;;;4933730;28;45122;-87
2024/01/31 10:35:15;;;;;;;2.38;1.67;;;22.50;30.00;;;;;;4941812;28;45142;-86
2024/01/31 10:37:41;;;;;;;2.35;1.73;;;22.60;30.00;;;;;;4944697;28;44619;-86
2024/01/31 10:40:09;;;;;;;1.65;1.40;;;22.50;30.00;;;;;;4941601;28;45629;-87
2024/01/31 10:42:35;;;;;;;1.88;1.70;;;22.60;30.00;;;;;;4955892;28;46395;-86
2024/01/31 10:45:01;;;;;;;5.20;1.80;;;22.60;30.00;;;;;;4925821;28;44987;-86
2024/01/31 10:47:27;;;;;;;2.10;1.70;;;22.60;30.00;;;;;;4933848;28;45557;-86
2024/01/31 10:49:56;;;;;;;1.67;1.50;;;22.60;30.00;;;;;;4939405;28;45194;-87
2024/01/31 10:52:25;;;;;;;2.90;1.58;;;22.60;30.00;;;;;;4936031;28;46298;-86
2024/01/31 10:55:14;;;;;;;2.63;1.50;;;22.60;30.00;;;;;;4928836;28;45339;-86
2024/01/31 10:57:41;;;;;;;1.73;1.50;;;22.70;30.00;;;;;;4973702;28;45281;-87
2024/01/31 11:00:28;;;;;;;2.40;1.70;;;22.70;30.00;;;;;;4925095;28;45544;-89
2024/01/31 11:02:56;;;;;;;2.35;1.77;;;22.70;30.00;;;;;;4967473;28;45695;-86
2024/01/31 11:05:22;;;;;;;3.08;1.63;;;22.70;30.00;;;;;;4908144;28;45189;-86
2024/01/31 11:07:47;;;;;;;1.92;1.30;;;22.70;30.00;;;;;;4930645;28;44866;-86
2024/01/31 11:10:23;;;;;;;1.88;1.48;;;22.70;30.00;;;;;;4957727;28;44649;-86
2024/01/31 11:13:00;;;;;;;2.53;1.80;;;22.70;30.00;;;;;;4944615;28;46170;-87
2024/01/31 11:15:36;;;;;;;2.42;1.73;;;22.80;30.00;;;;;;4932940;28;45861;-87
2024/01/31 11:18:11;;;;;;;3.38;1.60;;;22.80;30.00;;;;;;4945206;28;45309;-87
2024/01/31 11:20:44;;;;;;;3.20;1.60;;;22.70;30.00;;;;;;4955608;28;44888;-86
2024/01/31 11:23:16;;;;;;;1.83;1.55;;;22.70;29.90;;;;;;4939356;28;46030;-88
2024/01/31 11:25:43;;;;;;;2.83;1.50;;;22.80;30.00;;;;;;4928245;28;45325;-86
2024/01/31 11:28:10;;;;;;;3.10;1.60;;;22.70;29.90;;;;;;4945458;28;44918;-87
2024/01/31 11:30:42;;;;;;;2.15;1.70;;;22.80;29.90;;;;;;4956508;28;45548;-86
2024/01/31 11:33:08;;;;;;;3.78;1.38;;;22.80;30.00;;;;;;4954768;28;47175;-85
2024/01/31 11:35:34;;;;;;;2.90;1.60;;;22.80;29.90;;;;;;4955670;28;45053;-86
2024/01/31 11:38:00;;;;;;;1.48;1.38;;;22.80;30.00;;;;;;4945004;28;44981;-87
2024/01/31 11:40:25;;;;;;;3.38;1.85;;;22.80;30.00;;;;;;4943047;28;45186;-86
2024/01/31 11:42:53;;;;;;;1.83;1.60;;;22.80;29.90;;;;;;4940887;28;46168;-87
2024/01/31 11:45:36;;;;;;;2.13;1.50;;;22.80;29.90;;;;;;4964245;28;45437;-88
2024/01/31 11:48:03;;;;;;;3.80;1.30;;;22.80;30.00;;;;;;4938989;28;45009;-86
2024/01/31 11:50:28;;;;;;;1.55;1.40;;;22.80;30.00;;;;;;4949441;28;45918;-86
2024/01/31 11:52:54;;;;;;;1.98;1.40;;;22.80;30.00;;;;;;4958829;28;45334;-86
2024/01/31 11:55:23;;;;;;;2.97;1.58;;;22.80;29.90;;;;;;4923282;28;45421;-87
2024/01/31 11:57:50;;;;;;;1.33;1.20;;;22.80;29.90;;;;;;4938968;28;45231;-85
2024/01/31 12:00:17;;;;;;;2.63;1.38;;;22.80;29.90;;;;;;4937684;28;45301;-86
2024/01/31 12:02:46;;;;;;;3.53;1.35;;;22.80;29.90;;;;;;4920914;28;47237;-86
2024/01/31 12:05:15;;;;;;;1.77;1.38;;;22.80;29.90;;;;;;4916090;28;45504;-86
2024/01/31 12:07:41;;;;;;;2.15;1.35;;;22.80;29.90;;;;;;4941215;28;45295;-86
2024/01/31 12:10:11;;;;;;;1.75;1.20;;;22.80;29.90;;;;;;4957886;28;44973;-88
2024/01/31 12:12:42;;;;;;;2.05;1.30;;;22.80;29.90;;;;;;4948317;28;46461;-87
2024/01/31 12:15:15;;;;;;;2.17;1.30;;;22.80;29.90;;;;;;4933803;28;45434;-86
2024/01/31 12:17:42;;;;;;;2.97;1.23;;;22.80;29.90;;;;;;4961926;28;45622;-86
2024/01/31 12:20:11;;;;;;;1.40;0.95;;;22.80;29.90;;;;;;4949494;28;45001;-88
2024/01/31 12:22:37;;;;;;;1.88;1.20;;;22.80;30.00;;;;;;4952470;28;45679;-86
2024/01/31 12:25:16;;;;;;;1.38;1.00;;;22.80;29.90;;;;;;4951379;28;45709;-87
2024/01/31 12:27:41;;;;;;;2.53;1.27;;;22.80;29.90;;;;;;4936591;28;45644;-86
2024/01/31 12:30:12;;;;;;;1.40;1.27;;;22.80;29.90;;;;;;4935285;28;44869;-86
2024/01/31 12:32:40;;;;;;;;;;;22.80;29.90;;;;;;4951695;28;45707;-86
2024/01/31 12:35:09;;;;;;;1.15;1.05;;;22.80;30.00;;;;;;4932386;28;45641;-87
2024/01/31 12:37:35;;;;;;;1.77;1.20;;;22.80;30.00;;;;;;4935411;28;45234;-86
2024/01/31 12:40:01;;;;;;;1.50;1.13;;;22.80;29.90;;;;;;4952832;28;44776;-85
2024/01/31 12:42:26;;;;;;;2.40;1.10;;;22.80;29.90;;;;;;4933989;28;46412;-86
2024/01/31 12:44:52;;;;;;;1.80;1.10;;;22.80;30.00;;;;;;4920540;28;45669;-86
2024/01/31 12:47:18;;;;;;;0.93;0.85;;;22.80;29.90;;;;;;4933073;28;45736;-86
2024/01/31 12:49:47;;;;;;;1.77;0.93;;;22.90;30.00;;;;;;4921402;28;46637;-87
2024/01/31 12:52:13;;;;;;;1.83;0.95;;;22.80;29.90;;;;;;4934005;28;47421;-86
2024/01/31 12:54:38;;;;;;;1.98;1.13;;;22.80;29.90;;;;;;4924926;28;44943;-86
2024/01/31 12:57:04;;;;;;;1.58;1.00;;;22.80;29.90;;;;;;4926679;28;45233;-86
2024/01/31 12:59:30;;;;;;;0.80;0.80;;;22.80;29.90;;;;;;4921666;28;46032;-86
2024/01/31 13:01:56;;;;;;;1.17;1.00;;;22.80;29.90;;;;;;4931147;28;47286;-86
2024/01/31 13:04:22;;;;;;;1.42;0.88;;;22.90;30.00;;;;;;4921475;28;45710;-86
2024/01/31 13:06:48;;;;;;;1.25;0.85;;;22.90;30.00;;;;;;4933554;28;45690;-87
2024/01/31 13:09:14;;;;;;;1.92;1.10;;;22.80;30.00;;;;;;4922025;28;44877;-86
2024/01/31 13:11:39;;;;;;;1.02;0.70;;;22.90;30.00;;;;;;4932383;28;47602;-86
2024/01/31 13:14:07;;;;;;;2.97;0.98;;;22.90;30.00;;;;;;4926281;28;45153;-86
2024/01/31 13:16:34;;;;;;;1.60;1.15;;;22.90;30.00;;;;;;4946050;28;44751;-86
2024/01/31 13:19:00;;;;;;;2.35;0.90;;;22.90;30.00;;;;;;4934433;28;45578;-86
2024/01/31 13:21:27;;;;;;;1.85;0.90;;;22.90;30.00;;;;;;4951878;28;45480;-86
2024/01/31 13:23:55;;;;;;;1.30;0.68;;;22.90;30.00;;;;;;4939959;28;44941;-86
2024/01/31 13:26:24;;;;;;;1.77;0.88;;;22.90;30.00;;;;;;4951478;28;45767;-86
2024/01/31 13:28:50;;;;;;;2.03;0.90;;;22.90;30.00;;;;;;4935228;28;45467;-86
2024/01/31 13:31:16;;;;;;;0.70;0.70;;;22.90;30.30;;;;;;4933882;28;47420;-87
2024/01/31 13:33:42;;;;;;;1.75;0.77;;;22.90;30.00;;;;;;4922710;28;46270;-86
2024/01/31 13:36:10;;;;;;;1.08;0.82;;;22.90;30.50;;;;;;4951463;28;45406;-86
2024/01/31 13:38:37;;;;;;;1.50;1.02;;;22.90;30.00;;;;;;4955533;28;45156;-86
2024/01/31 13:41:02;;;;;;;1.23;0.77;;;22.90;30.00;;;;;;4935321;28;46212;-86
2024/01/31 13:43:28;;;;;;;1.60;0.90;;;22.90;30.00;;;;;;4923399;28;45315;-86
2024/01/31 13:45:54;;;;;;;0.95;0.77;;;22.90;30.00;;;;;;4932358;28;44954;-86
2024/01/31 13:48:20;;;;;;;1.42;0.90;;;22.90;30.00;;;;;;4937122;28;46101;-86
2024/01/31 13:50:46;;;;;;;1.73;0.85;;;22.90;30.00;;;;;;4925166;28;45557;-86
2024/01/31 13:53:12;;;;;;;1.67;1.00;;;22.90;30.00;;;;;;4954934;28;44980;-86
2024/01/31 13:55:37;;;;;;;1.80;0.70;;;22.90;30.00;;;;;;4938328;28;45237;-86
2024/01/31 13:58:03;;;;;;;0.90;0.60;;;22.90;30.00;;;;;;4927675;28;44979;-87
2024/01/31 14:00:30;;;;;;;0.82;0.82;;;22.90;30.00;;;;;;4937487;28;46590;-87
2024/01/31 14:02:55;;;;;;;0.95;0.80;;;22.80;30.00;;;;;;4938452;28;45631;-86
2024/01/31 14:05:21;;;;;;;1.40;0.70;;;22.80;30.00;;;;;;4922036;28;45472;-85
2024/01/31 14:07:47;;;;;;;0.60;0.60;;;22.80;30.00;;;;;;4937271;28;45644;-86
2024/01/31 14:10:17;;;;;;;1.10;0.85;;;22.80;30.00;;;;;;4950958;28;45553;-86
2024/01/31 14:12:42;;;;;;;0.60;0.60;;;22.80;30.00;;;;;;4976518;28;45582;-86
2024/01/31 14:15:11;;;;;;;1.48;1.00;;;22.80;30.00;;;;;;4951455;28;44790;-87
2024/01/31 14:17:38;;;;;;;1.20;0.73;;;22.80;30.00;;;;;;4951106;28;45675;-86
2024/01/31 14:20:09;;;;;;;1.02;0.82;;;22.80;30.00;;;;;;4954631;28;47553;-88
2024/01/31 14:22:38;;;;;;;0.88;0.73;;;22.80;30.00;;;;;;4922305;28;45380;-86
2024/01/31 14:25:10;;;;;;;1.13;0.80;;;22.80;30.00;;;;;;4969336;28;45268;-88
2024/01/31 14:27:35;;;;;;;0.73;0.70;;;22.80;30.00;;;;;;4937615;28;45693;-86
2024/01/31 14:30:08;;;;;;;1.10;0.70;;;22.80;30.00;;;;;;4927356;28;46425;-87
2024/01/31 14:32:33;;;;;;;1.15;0.63;;;22.80;30.00;;;;;;4939938;28;45156;-86
2024/01/31 14:34:59;;;;;;;1.05;0.90;;;22.80;30.00;;;;;;4920263;28;45379;-86
2024/01/31 14:37:25;;;;;;;1.38;0.80;;;22.80;30.00;;;;;;4933468;28;45820;-86
2024/01/31 14:39:51;;;;;;;1.63;0.80;;;22.80;30.00;;;;;;4944261;28;46776;-86
2024/01/31 14:42:17;;;;;;;0.57;0.50;;;22.80;30.00;;;;;;4950848;28;44916;-86
2024/01/31 14:44:43;;;;;;;1.23;1.00;;;22.80;30.00;;;;;;4947097;28;44731;-87
2024/01/31 14:47:09;;;;;;;1.70;1.00;;;22.80;30.00;;;;;;4933593;28;45641;-86
2024/01/31 14:49:35;;;;;;;1.17;0.88;;;22.80;30.00;;;;;;4969819;28;45678;-86
2024/01/31 14:52:01;;;;;;;0.75;0.75;;;22.80;30.00;;;;;;4925283;28;44946;-86
2024/01/31 14:54:27;;;;;;;0.85;0.75;;;22.80;30.00;;;;;;4969997;28;45364;-86
2024/01/31 14:56:52;;;;;;;1.08;0.68;;;22.80;30.00;;;;;;4934653;28;45313;-86
2024/01/31 14:59:19;;;;;;;1.13;0.75;;;22.80;30.00;;;;;;4937569;28;46461;-86
2024/01/31 15:01:45;;;;;;;0.63;0.52;;;22.80;30.00;;;;;;4918168;28;45770;-86
2024/01/31 15:04:11;;;;;;;1.92;0.80;;;22.80;30.00;;;;;;4919662;28;44788;-86
2024/01/31 15:06:37;;;;;;;1.42;0.70;;;22.80;30.00;;;;;;4932910;28;45089;-86
2024/01/31 15:09:05;;;;;;;1.05;0.73;;;22.80;30.10;;;;;;4934075;28;46477;-84
2024/01/31 15:11:31;;;;;;;0.70;0.70;;;22.80;30.00;;;;;;4917422;28;45683;-86
2024/01/31 15:13:58;;;;;;;0.57;0.57;;;22.70;30.00;;;;;;4924383;28;46009;-86
2024/01/31 15:16:23;;;;;;;1.30;0.80;;;22.70;30.00;;;;;;4930543;28;46272;-85
2024/01/31 15:18:50;;;;;;;0.70;0.70;;;22.80;30.10;;;;;;4921841;28;46524;-86
2024/01/31 15:21:19;;;;;;;1.13;0.68;;;22.70;30.00;;;;;;4952621;28;44744;-86
2024/01/31 15:23:44;;;;;;;1.75;0.55;;;22.80;30.10;;;;;;4922300;28;45360;-86
2024/01/31 15:26:10;;;;;;;0.73;0.73;;;22.70;30.10;;;;;;4905758;28;45269;-86
2024/01/31 15:28:37;;;;;;;0.70;0.65;;;22.70;30.10;;;;;;4919003;28;45542;-85
2024/01/31 15:31:05;;;;;;;0.88;0.70;;;22.70;30.10;;;;;;4929249;28;45412;-85
2024/01/31 15:33:31;;;;;;;0.77;0.68;;;22.70;30.10;;;;;;4919615;28;45623;-86
2024/01/31 15:35:57;;;;;;;1.33;0.80;;;22.70;30.10;;;;;;4904753;28;46218;-86
2024/01/31 15:38:23;;;;;;;1.23;0.65;;;22.70;30.10;;;;;;4917242;28;45643;-86
2024/01/31 15:40:50;;;;;;;0.73;0.65;;;22.70;30.10;;;;;;4917621;28;45266;-87
2024/01/31 15:43:16;;;;;;;1.10;0.80;;;22.70;30.10;;;;;;4886428;28;46290;-84
2024/01/31 15:45:42;;;;;;;1.23;0.70;;;22.70;30.10;;;;;;4898955;28;45193;-85
2024/01/31 15:48:08;;;;;;;0.75;0.70;;;22.70;30.20;;;;;;4932448;28;45524;-86
2024/01/31 15:50:35;;;;;;;1.38;0.80;;;22.70;30.10;;;;;;4899604;28;45403;-87
2024/01/31 15:53:01;;;;;;;0.65;0.65;;;22.70;30.20;;;;;;4954167;28;45111;-86
2024/01/31 15:55:29;;;;;;;1.33;0.90;;;22.70;30.20;;;;;;4934101;28;45415;-87
2024/01/31 15:57:55;;;;;;;1.38;0.82;;;22.60;30.10;;;;;;4914493;28;46237;-85
2024/01/31 16:00:21;;;;;;;1.58;0.88;;;22.60;30.10;;;;;;4930426;23;45461;-37
2024/01/31 16:02:47;;;;;;;2.10;1.10;;;22.60;30.10;;;;;;4929477;28;45831;-38
2024/01/31 16:05:13;;;;;;;1.00;0.70;;;22.60;30.10;;;;;;4927505;28;45105;-37
2024/01/31 16:07:39;;;;;;;1.73;0.75;;;22.60;30.20;;;;;;4922980;28;45397;-37
2024/01/31 16:10:05;;;;;;;1.40;1.02;;;22.60;30.20;;;;;;4928425;28;45059;-37
2024/01/31 16:12:31;;;;;;;1.20;0.82;;;22.60;30.20;;;;;;4883752;28;46434;-37
2024/01/31 16:14:56;;;;;;;0.90;0.80;;;22.60;30.20;;;;;;4922652;28;45371;-37
2024/01/31 16:17:22;;;;;;;1.05;0.93;;;22.60;30.20;;;;;;4917470;28;45357;-40
2024/01/31 16:19:48;;;;;;;1.25;1.10;;;22.60;30.20;;;;;;4920488;28;45204;-37
2024/01/31 16:22:13;;;;;;;1.15;0.80;;;22.60;30.20;;;;;;4928612;28;45940;-37
2024/01/31 16:24:40;;;;;;;2.13;0.90;;;22.60;30.20;;;;;;4939041;28;46144;-38
2024/01/31 16:27:06;;;;;;;1.92;1.08;;;22.60;30.20;;;;;;4930419;28;45256;-38
2024/01/31 16:29:32;;;;;;;1.10;0.98;;;22.60;30.30;;;;;;4938118;28;45204;-38
2024/01/31 16:31:57;;;;;;;1.20;0.95;;;22.60;30.20;;;;;;4909495;28;45188;-37
2024/01/31 16:34:23;;;;;;;1.00;0.90;;;22.60;30.30;;;;;;4933085;28;45766;-38
2024/01/31 16:36:51;;;;;;;0.90;0.80;;;22.60;30.20;;;;;;4926134;28;45707;-37
2024/01/31 16:39:17;;;;;;;0.88;0.80;;;22.60;30.20;;;;;;4936749;28;45517;-36
2024/01/31 16:41:43;;;;;;;1.27;0.90;;;22.60;30.30;;;;;;4932496;28;46564;-37
2024/01/31 16:44:08;;;;;;;1.73;1.00;;;22.60;30.30;;;;;;4930067;28;46393;-38
2024/01/31 16:46:34;;;;;;;1.85;0.93;;;22.60;30.30;;;;;;4913535;28;45831;-38
2024/01/31 16:49:00;;;;;;;1.33;0.90;;;22.50;30.30;;;;;;4936429;28;46548;-37